createdAt,value
2018-05-23T00:01:21.715Z,76.98
2018-05-23T00:03:49.969Z,77.42
2018-05-23T00:06:18.979Z,76.34
2018-05-23T00:08:47.997Z,77.62
2018-05-23T00:11:16.240Z,78.12
2018-05-23T00:13:45.261Z,78.36
2018-05-23T00:16:13.506Z,78.09
2018-05-23T00:18:42.519Z,78.46
2018-05-23T00:21:10.773Z,77.34
2018-05-23T00:23:39.793Z,76.38
2018-05-23T00:26:08.036Z,76.35
2018-05-23T00:28:37.051Z,72.92
2018-05-23T00:31:05.291Z,70.94
2018-05-23T00:33:33.555Z,69.02
2018-05-23T00:36:01.803Z,68.42
2018-05-23T00:38:30.046Z,68.54
2018-05-23T00:40:59.064Z,67.98
2018-05-23T00:43:27.300Z,67.28
2018-05-23T00:45:56.311Z,67.39
2018-05-23T00:48:24.547Z,67.71
2018-05-23T00:50:52.792Z,67.26
2018-05-23T00:53:21.034Z,67.59
2018-05-23T00:55:50.045Z,67.68
2018-05-23T00:58:18.282Z,67.66
2018-05-23T01:00:46.533Z,67.71
2018-05-23T01:03:14.769Z,68.04
2018-05-23T01:05:43.015Z,67.99
2018-05-23T01:08:12.024Z,68.38
2018-05-23T01:10:40.284Z,68.58
2018-05-23T01:13:09.406Z,68.65
2018-05-23T01:15:37.650Z,69.07
2018-05-23T01:18:05.897Z,69.16
2018-05-23T01:20:34.132Z,68.76
2018-05-23T01:23:02.391Z,68.33
2018-05-23T01:25:31.496Z,68.86
2018-05-23T01:27:59.744Z,69.13
2018-05-23T01:30:27.987Z,68.71
2018-05-23T01:32:56.240Z,68.61
2018-05-23T01:35:24.475Z,68.51
2018-05-23T01:37:53.483Z,67.99
2018-05-23T01:40:21.723Z,68.30
2018-05-23T01:42:51.479Z,68.02
2018-05-23T01:45:19.719Z,68.00
2018-05-23T01:47:47.975Z,68.11
2018-05-23T01:50:16.221Z,68.28
2018-05-23T01:52:44.470Z,68.44
2018-05-23T01:55:13.471Z,68.36
2018-05-23T01:57:41.719Z,68.55
2018-05-23T02:00:10.729Z,69.08
2018-05-23T02:02:39.744Z,69.67
2018-05-23T02:05:07.986Z,69.78
2018-05-23T02:07:36.999Z,69.22
2018-05-23T02:10:05.239Z,69.17
2018-05-23T02:12:34.248Z,69.10
2018-05-23T02:15:03.260Z,73.16
2018-05-23T02:17:31.515Z,74.81
2018-05-23T02:20:00.524Z,74.57
2018-05-23T02:22:28.771Z,73.68
2018-05-23T02:24:57.024Z,75.91
2018-05-23T02:27:25.268Z,75.17
2018-05-23T02:29:53.519Z,76.28
2018-05-23T02:32:22.530Z,76.02
2018-05-23T02:34:50.788Z,75.72
2018-05-23T02:37:19.800Z,76.64
2018-05-23T02:39:48.048Z,76.69
2018-05-23T02:42:17.056Z,73.73
2018-05-23T02:44:46.070Z,75.68
2018-05-23T02:47:14.388Z,76.91
2018-05-23T02:49:43.333Z,77.87
2018-05-23T02:52:11.576Z,78.54
2018-05-23T02:54:40.595Z,76.78
2018-05-23T02:57:08.851Z,77.38
2018-05-23T02:59:37.870Z,78.34
2018-05-23T03:02:06.105Z,77.75
2018-05-23T03:04:34.358Z,78.89
2018-05-23T03:07:02.596Z,79.91
2018-05-23T03:09:30.846Z,81.24
2018-05-23T03:11:59.857Z,80.60
2018-05-23T03:14:28.101Z,80.57
2018-05-23T03:16:56.339Z,79.36
2018-05-23T03:19:24.587Z,77.25
2018-05-23T03:21:52.840Z,77.47
2018-05-23T03:24:21.863Z,77.45
2018-05-23T03:26:50.116Z,79.18
2018-05-23T03:29:19.123Z,79.49
2018-05-23T03:31:47.375Z,76.53
2018-05-23T03:34:16.387Z,77.92
2018-05-23T03:36:44.639Z,77.34
2018-05-23T03:39:13.648Z,78.02
2018-05-23T03:41:41.899Z,78.61
2018-05-23T03:44:10.160Z,79.39
2018-05-23T03:46:38.400Z,79.29
2018-05-23T03:49:06.643Z,78.54
2018-05-23T03:51:35.656Z,75.97
2018-05-23T03:54:03.892Z,74.76
2018-05-23T03:56:32.142Z,74.45
2018-05-23T03:59:00.395Z,77.06
2018-05-23T04:01:46.506Z,77.17
2018-05-23T04:04:32.645Z,77.19
2018-05-23T04:10:14.090Z,77.59
2018-05-23T04:12:42.338Z,78.66
2018-05-23T04:15:11.345Z,78.08
2018-05-23T04:17:39.596Z,79.19
2018-05-23T04:20:08.600Z,78.93
2018-05-23T04:22:36.853Z,78.82
2018-05-23T04:25:05.095Z,80.12
2018-05-23T04:27:33.347Z,78.37
2018-05-23T04:30:01.592Z,79.00
2018-05-23T04:32:30.608Z,78.68
2018-05-23T04:34:58.847Z,78.88
2018-05-23T04:37:27.867Z,76.50
2018-05-23T04:39:56.127Z,75.66
2018-05-23T04:42:25.127Z,75.16
2018-05-23T04:44:53.384Z,76.83
2018-05-23T04:47:22.411Z,77.92
2018-05-23T04:49:50.655Z,76.48
2018-05-23T04:52:19.660Z,75.61
2018-05-23T04:54:48.677Z,75.44
2018-05-23T04:57:16.914Z,75.18
2018-05-23T04:59:45.927Z,75.06
2018-05-23T05:02:14.170Z,74.94
2018-05-23T05:04:42.419Z,75.21
2018-05-23T05:07:10.665Z,75.12
2018-05-23T05:09:38.919Z,73.55
2018-05-23T05:12:07.955Z,73.40
2018-05-23T05:14:36.210Z,73.62
2018-05-23T05:17:04.452Z,73.30
2018-05-23T05:19:32.705Z,73.74
2018-05-23T05:22:00.949Z,72.34
2018-05-23T05:24:29.194Z,71.80
2018-05-23T05:26:57.442Z,71.73
2018-05-23T05:29:25.695Z,72.12
2018-05-23T05:31:53.980Z,71.09
2018-05-23T05:34:22.191Z,71.80
2018-05-23T05:36:51.206Z,71.37
2018-05-23T05:39:19.466Z,70.69
2018-05-23T05:41:48.465Z,70.74
2018-05-23T05:44:16.712Z,69.53
2018-05-23T05:46:44.956Z,69.37
2018-05-23T05:49:13.197Z,69.21
2018-05-23T05:51:41.447Z,68.21
2018-05-23T05:54:10.451Z,69.34
2018-05-23T05:56:39.464Z,69.44
2018-05-23T05:59:07.708Z,69.17
2018-05-23T06:01:36.723Z,71.69
2018-05-23T06:04:04.971Z,70.70
2018-05-23T06:06:33.210Z,69.46
2018-05-23T06:09:01.445Z,69.61
2018-05-23T06:11:29.695Z,69.35
2018-05-23T06:13:58.703Z,70.61
2018-05-23T06:16:27.716Z,71.71
2018-05-23T06:18:55.965Z,69.96
2018-05-23T06:21:24.970Z,70.42
2018-05-23T06:23:53.212Z,69.69
2018-05-23T06:26:22.965Z,68.76
2018-05-23T06:28:51.210Z,67.29
2018-05-23T06:31:19.451Z,68.35
2018-05-23T06:33:47.692Z,67.61
2018-05-23T06:36:15.944Z,67.01
2018-05-23T06:38:44.961Z,66.15
2018-05-23T06:41:13.214Z,65.76
2018-05-23T06:43:42.326Z,65.82
2018-05-23T06:46:10.478Z,65.72
2018-05-23T06:48:38.728Z,66.06
2018-05-23T06:51:06.972Z,65.43
2018-05-23T06:53:35.221Z,66.32
2018-05-23T06:56:04.223Z,67.39
2018-05-23T06:58:32.475Z,66.87
2018-05-23T07:01:00.715Z,66.12
2018-05-23T07:03:28.963Z,66.21
2018-05-23T07:05:57.309Z,65.42
2018-05-23T07:08:26.231Z,66.76
2018-05-23T07:10:54.480Z,65.41
2018-05-23T07:13:23.500Z,65.05
2018-05-23T07:15:51.748Z,65.97
2018-05-23T07:18:20.771Z,66.17
2018-05-23T07:20:49.012Z,65.14
2018-05-23T07:23:18.038Z,65.25
2018-05-23T07:25:46.307Z,65.19
2018-05-23T07:28:14.547Z,63.95
2018-05-23T07:30:42.791Z,64.05
2018-05-23T07:33:11.047Z,63.22
2018-05-23T07:35:39.285Z,64.06
2018-05-23T07:38:08.307Z,64.40
2018-05-23T07:40:36.544Z,64.25
2018-05-23T07:43:05.555Z,63.97
2018-05-23T07:45:34.571Z,63.94
2018-05-23T07:48:02.804Z,63.99
2018-05-23T07:50:31.047Z,62.79
2018-05-23T07:52:59.282Z,62.79
2018-05-23T07:55:27.584Z,62.18
2018-05-23T07:57:55.826Z,63.21
2018-05-23T08:00:24.084Z,63.77
2018-05-23T08:02:52.315Z,64.19
2018-05-23T08:05:20.563Z,65.32
2018-05-23T08:07:48.808Z,63.45
2018-05-23T08:10:17.062Z,63.39
2018-05-23T08:12:45.331Z,64.31
2018-05-23T08:15:13.559Z,62.53
2018-05-23T08:17:41.808Z,63.95
2018-05-23T08:20:10.052Z,63.18
2018-05-23T08:22:38.297Z,61.57
2018-05-23T08:25:06.548Z,62.18
2018-05-23T08:27:35.552Z,61.39
2018-05-23T08:30:03.800Z,60.78
2018-05-23T08:32:32.048Z,59.50
2018-05-23T08:35:00.292Z,60.17
2018-05-23T08:37:28.546Z,61.13
2018-05-23T08:39:56.788Z,59.98
2018-05-23T08:42:25.039Z,60.15
2018-05-23T08:44:53.281Z,59.23
2018-05-23T08:47:21.535Z,58.49
2018-05-23T08:49:50.551Z,58.74
2018-05-23T08:52:18.813Z,58.62
2018-05-23T08:54:47.816Z,58.23
2018-05-23T08:57:16.069Z,57.91
2018-05-23T08:59:45.092Z,56.80
2018-05-23T09:02:13.343Z,59.18
2018-05-23T09:04:42.406Z,56.61
2018-05-23T09:07:10.626Z,55.90
2018-05-23T09:09:38.870Z,56.96
2018-05-23T09:12:07.135Z,56.39
2018-05-23T09:14:35.381Z,57.11
2018-05-23T09:17:03.642Z,55.38
2018-05-23T09:19:31.888Z,55.34
2018-05-23T09:22:00.918Z,55.95
2018-05-23T09:24:29.177Z,53.93
2018-05-23T09:26:57.432Z,53.55
2018-05-23T09:29:26.464Z,52.94
2018-05-23T09:31:54.716Z,52.40
2018-05-23T09:34:22.968Z,52.98
2018-05-23T09:36:51.985Z,52.39
2018-05-23T09:39:20.233Z,50.64
2018-05-23T09:41:48.497Z,53.60
2018-05-23T09:44:16.765Z,52.83
2018-05-23T09:46:44.999Z,53.13
2018-05-23T09:49:13.254Z,53.03
2018-05-23T09:51:42.277Z,52.57
2018-05-23T09:54:10.539Z,50.85
2018-05-23T09:56:38.780Z,49.58
2018-05-23T09:59:07.794Z,53.04
2018-05-23T10:01:36.118Z,51.17
2018-05-23T10:04:04.296Z,51.70
2018-05-23T10:06:32.540Z,51.38
2018-05-23T10:09:00.801Z,48.93
2018-05-23T10:11:29.049Z,48.66
2018-05-23T10:13:57.308Z,51.00
2018-05-23T10:16:25.547Z,48.92
2018-05-23T10:18:53.803Z,47.43
2018-05-23T10:21:22.049Z,48.89
2018-05-23T10:23:50.303Z,48.82
2018-05-23T10:26:18.619Z,50.55
2018-05-23T10:28:46.864Z,50.34
2018-05-23T10:31:15.059Z,51.33
2018-05-23T10:33:44.084Z,52.52
2018-05-23T10:36:12.333Z,49.84
2018-05-23T10:38:41.350Z,50.63
2018-05-23T10:41:09.603Z,48.62
2018-05-23T10:43:38.621Z,49.55
2018-05-23T10:46:06.905Z,47.44
2018-05-23T10:48:35.885Z,50.26
2018-05-23T10:51:04.146Z,49.19
2018-05-23T10:53:33.162Z,48.40
2018-05-23T10:56:01.449Z,50.72
2018-05-23T10:58:30.427Z,50.39
2018-05-23T11:00:58.684Z,49.44
2018-05-23T11:03:27.687Z,47.63
2018-05-23T11:05:56.007Z,44.81
2018-05-23T11:08:24.947Z,46.16
2018-05-23T11:10:53.205Z,45.49
2018-05-23T11:13:22.224Z,46.75
2018-05-23T11:15:50.488Z,45.09
2018-05-23T11:18:19.491Z,46.75
2018-05-23T11:20:47.743Z,48.81
2018-05-23T11:23:16.772Z,48.67
2018-05-23T11:25:45.028Z,45.42
2018-05-23T11:28:14.041Z,44.92
2018-05-23T11:30:42.293Z,46.09
2018-05-23T11:33:11.303Z,46.60
2018-05-23T11:35:39.563Z,44.46
2018-05-23T11:38:08.572Z,49.57
2018-05-23T11:40:36.821Z,45.91
2018-05-23T11:43:05.853Z,46.24
2018-05-23T11:45:34.092Z,44.32
2018-05-23T11:48:03.107Z,45.56
2018-05-23T11:50:31.354Z,45.36
2018-05-23T11:53:00.373Z,44.46
2018-05-23T11:55:28.621Z,44.53
2018-05-23T11:57:57.641Z,42.29
2018-05-23T12:00:25.888Z,44.10
2018-05-23T12:02:54.906Z,46.11
2018-05-23T12:05:23.157Z,46.85
2018-05-23T12:07:51.403Z,47.88
2018-05-23T12:10:19.675Z,48.35
2018-05-23T12:12:47.912Z,47.21
2018-05-23T12:15:16.158Z,48.88
2018-05-23T12:17:45.182Z,48.57
2018-05-23T12:20:13.424Z,47.60
2018-05-23T12:22:41.681Z,48.23
2018-05-23T12:25:09.940Z,48.13
2018-05-23T12:27:38.187Z,48.55
2018-05-23T12:30:06.435Z,51.75
2018-05-23T12:32:35.466Z,50.95
2018-05-23T12:35:03.700Z,53.40
2018-05-23T12:37:32.721Z,52.62
2018-05-23T12:40:00.965Z,54.81
2018-05-23T12:42:29.232Z,55.90
2018-05-23T12:44:57.477Z,53.83
2018-05-23T12:47:25.724Z,52.74
2018-05-23T12:49:53.968Z,51.49
2018-05-23T12:52:22.996Z,50.14
2018-05-23T12:54:51.244Z,49.45
2018-05-23T12:57:20.260Z,49.40
2018-05-23T12:59:48.515Z,49.31
2018-05-23T13:02:17.529Z,49.98
2018-05-23T13:04:45.780Z,49.62
2018-05-23T13:07:14.785Z,51.61
2018-05-23T13:09:43.039Z,53.96
2018-05-23T13:12:11.286Z,54.07
2018-05-23T13:14:39.545Z,56.57
2018-05-23T13:17:07.779Z,57.72
2018-05-23T13:19:36.812Z,57.02
2018-05-23T13:22:05.063Z,57.95
2018-05-23T13:24:33.312Z,59.01
2018-05-23T13:27:02.323Z,57.24
2018-05-23T13:29:30.571Z,57.31
2018-05-23T13:31:58.812Z,56.89
2018-05-23T13:34:27.064Z,56.21
2018-05-23T13:36:55.305Z,54.61
2018-05-23T13:39:24.325Z,56.19
2018-05-23T13:41:52.571Z,54.48
2018-05-23T13:44:21.165Z,55.17
2018-05-23T13:46:50.188Z,58.16
2018-05-23T13:49:18.454Z,57.88
2018-05-23T13:51:46.696Z,59.10
2018-05-23T13:54:14.935Z,60.55
2018-05-23T13:56:43.196Z,60.06
2018-05-23T13:59:11.427Z,59.84
2018-05-23T14:01:40.472Z,61.56
2018-05-23T14:04:08.684Z,61.75
2018-05-23T14:06:36.962Z,61.12
2018-05-23T14:09:05.997Z,60.25
2018-05-23T14:11:34.255Z,60.53
2018-05-23T14:14:03.275Z,61.68
2018-05-23T14:16:31.527Z,62.88
2018-05-23T14:18:59.926Z,61.51
2018-05-23T14:21:28.209Z,61.59
2018-05-23T14:23:56.452Z,61.63
2018-05-23T14:26:25.473Z,62.37
2018-05-23T14:28:53.719Z,62.15
2018-05-23T14:31:22.730Z,62.60
2018-05-23T14:33:50.975Z,63.29
2018-05-23T14:36:19.991Z,64.90
2018-05-23T14:38:48.244Z,65.44
2018-05-23T14:41:17.391Z,67.65
2018-05-23T14:43:45.724Z,67.17
2018-05-23T14:46:13.886Z,68.30
2018-05-23T14:48:42.911Z,70.13
2018-05-23T14:51:11.155Z,68.96
2018-05-23T14:53:40.173Z,70.84
2018-05-23T14:56:08.419Z,68.65
2018-05-23T14:58:36.746Z,69.91
2018-05-23T15:01:04.916Z,71.33
2018-05-23T15:03:33.171Z,71.86
2018-05-23T15:06:02.183Z,70.87
2018-05-23T15:08:30.508Z,70.35
2018-05-23T15:10:58.691Z,72.64
2018-05-23T15:13:26.943Z,73.79
2018-05-23T15:15:55.192Z,74.98
2018-05-23T15:18:23.442Z,74.63
2018-05-23T15:20:52.448Z,74.65
2018-05-23T15:23:20.706Z,75.93
2018-05-23T15:25:49.722Z,76.22
2018-05-23T15:28:17.968Z,76.41
2018-05-23T15:30:46.976Z,76.31
2018-05-23T15:33:15.221Z,76.67
2018-05-23T15:35:43.460Z,78.12
2018-05-23T15:38:11.715Z,77.26
2018-05-23T15:40:39.955Z,78.13
2018-05-23T15:43:08.971Z,80.19
2018-05-23T15:45:37.213Z,82.45
2018-05-23T15:48:05.460Z,80.18
2018-05-23T15:50:33.704Z,80.13
2018-05-23T15:53:01.955Z,79.64
2018-05-23T15:55:30.962Z,79.49
2018-05-23T15:57:59.204Z,79.02
2018-05-23T16:00:27.454Z,80.62
2018-05-23T16:02:55.704Z,82.03
2018-05-23T16:05:23.948Z,82.55
2018-05-23T16:07:52.959Z,82.46
2018-05-23T16:10:21.202Z,82.39
2018-05-23T16:12:49.446Z,81.90
2018-05-23T16:15:17.703Z,82.17
2018-05-23T16:17:45.938Z,81.50
2018-05-23T16:20:14.963Z,80.45
2018-05-23T16:22:43.203Z,80.69
2018-05-23T16:25:11.450Z,79.54
2018-05-23T16:27:39.693Z,80.58
2018-05-23T16:30:07.945Z,80.01
2018-05-23T16:32:36.959Z,80.64
2018-05-23T16:35:05.231Z,79.95
2018-05-23T16:37:33.475Z,79.95
2018-05-23T16:40:02.496Z,79.76
2018-05-23T16:42:30.744Z,79.86
2018-05-23T16:44:59.761Z,79.99
2018-05-23T16:47:28.016Z,79.11
2018-05-23T16:49:57.031Z,79.49
2018-05-23T16:52:25.281Z,76.46
2018-05-23T16:54:54.300Z,76.65
2018-05-23T16:57:22.553Z,75.59
2018-05-23T16:59:51.577Z,74.73
2018-05-23T17:02:19.823Z,77.75
2018-05-23T17:04:48.833Z,77.34
2018-05-23T17:07:17.084Z,77.18
2018-05-23T17:09:46.109Z,75.86
2018-05-23T17:12:14.352Z,75.59
2018-05-23T17:14:42.592Z,75.28
2018-05-23T17:17:10.848Z,74.32
2018-05-23T17:19:39.091Z,70.77
2018-05-23T17:22:08.335Z,69.02
2018-05-23T17:24:36.584Z,66.92
2018-05-23T17:27:04.851Z,65.76
2018-05-23T17:29:33.863Z,65.44
2018-05-23T17:32:02.117Z,66.04
2018-05-23T17:34:31.135Z,65.94
2018-05-23T17:36:59.380Z,65.65
2018-05-23T17:39:28.383Z,67.60
2018-05-23T17:41:57.400Z,64.33
2018-05-23T17:44:25.674Z,64.80
2018-05-23T17:46:54.655Z,66.56
2018-05-23T17:49:22.903Z,66.14
2018-05-23T17:51:51.919Z,67.19
2018-05-23T17:54:20.172Z,67.49
2018-05-23T17:56:49.205Z,68.25
2018-05-23T17:59:17.442Z,68.40
2018-05-23T18:01:46.462Z,69.38
2018-05-23T18:04:14.698Z,69.87
2018-05-23T18:06:42.949Z,69.61
2018-05-23T18:09:11.214Z,69.16
2018-05-23T18:11:39.451Z,69.86
2018-05-23T18:14:08.461Z,70.25
2018-05-23T18:16:36.740Z,70.13
2018-05-23T18:19:05.724Z,70.31
2018-05-23T18:21:34.026Z,70.36
2018-05-23T18:24:02.273Z,70.60
2018-05-23T18:26:31.287Z,71.06
2018-05-23T18:28:59.532Z,70.00
2018-05-23T18:31:28.544Z,71.78
2018-05-23T18:33:56.803Z,70.30
2018-05-23T18:36:25.812Z,71.23
2018-05-23T18:38:54.071Z,71.40
2018-05-23T18:41:23.088Z,72.31
2018-05-23T18:43:51.341Z,72.07
2018-05-23T18:46:20.344Z,71.91
2018-05-23T18:48:48.595Z,71.57
2018-05-23T18:51:17.607Z,71.68
2018-05-23T18:53:46.632Z,72.29
2018-05-23T18:56:14.871Z,72.27
2018-05-23T18:58:43.894Z,72.42
2018-05-23T19:01:12.137Z,72.11
2018-05-23T19:03:41.158Z,72.44
2018-05-23T19:06:09.397Z,73.40
2018-05-23T19:08:38.415Z,72.99
2018-05-23T19:11:06.655Z,73.20
2018-05-23T19:13:34.905Z,73.50
2018-05-23T19:16:03.151Z,73.56
2018-05-23T19:18:31.407Z,73.76
2018-05-23T19:20:59.673Z,73.61
2018-05-23T19:23:28.720Z,73.78
2018-05-23T19:25:56.964Z,74.10
2018-05-23T19:28:25.260Z,74.43
2018-05-23T19:30:53.536Z,74.66
2018-05-23T19:33:21.782Z,74.94
2018-05-23T19:35:50.796Z,75.03
2018-05-23T19:38:19.039Z,75.04
2018-05-23T19:40:48.087Z,75.05
2018-05-23T19:43:16.328Z,75.37
2018-05-23T19:45:44.575Z,75.59
2018-05-23T19:48:13.594Z,75.64
2018-05-23T19:50:41.843Z,75.83
2018-05-23T19:53:10.848Z,75.97
2018-05-23T19:55:39.892Z,76.42
2018-05-23T19:58:08.131Z,76.48
2018-05-23T20:00:36.394Z,76.86
2018-05-23T20:03:05.400Z,77.25
2018-05-23T20:05:33.647Z,76.75
2018-05-23T20:08:02.685Z,76.92
2018-05-23T20:10:31.680Z,76.85
2018-05-23T20:12:59.934Z,76.73
2018-05-23T20:15:28.179Z,76.72
2018-05-23T20:17:56.423Z,77.38
2018-05-23T20:20:24.685Z,77.15
2018-05-23T20:22:52.931Z,77.43
2018-05-23T20:25:21.945Z,77.13
2018-05-23T20:27:50.194Z,77.17
2018-05-23T20:30:19.214Z,77.15
2018-05-23T20:32:47.467Z,77.40
2018-05-23T20:35:16.477Z,77.42
2018-05-23T20:37:44.745Z,77.51
2018-05-23T20:40:12.997Z,77.82
2018-05-23T20:42:42.008Z,78.15
2018-05-23T20:45:10.265Z,78.25
2018-05-23T20:47:39.350Z,78.70
2018-05-23T20:50:07.528Z,78.66
2018-05-23T20:52:35.777Z,78.97
2018-05-23T20:55:04.013Z,78.83
2018-05-23T20:57:32.269Z,78.48
2018-05-23T21:00:01.284Z,79.26
2018-05-23T21:02:29.536Z,78.94
2018-05-23T21:04:58.547Z,79.04
2018-05-23T21:07:26.804Z,79.38
2018-05-23T21:09:55.818Z,79.18
2018-05-23T21:12:24.070Z,79.36
2018-05-23T21:14:53.087Z,79.43
2018-05-23T21:17:21.348Z,79.40
2018-05-23T21:19:50.349Z,79.45
2018-05-23T21:22:18.605Z,79.63
2018-05-23T21:24:47.624Z,79.88
2018-05-23T21:27:15.873Z,79.65
2018-05-23T21:29:44.891Z,79.71
2018-05-23T21:32:13.135Z,79.51
2018-05-23T21:34:42.151Z,79.58
2018-05-23T21:37:10.403Z,79.61
2018-05-23T21:39:39.411Z,79.50
2018-05-23T21:42:09.184Z,79.32
2018-05-23T21:44:37.436Z,79.27
2018-05-23T21:47:05.678Z,79.62
2018-05-23T21:49:34.692Z,79.85
2018-05-23T21:52:02.933Z,80.10
2018-05-23T21:56:59.488Z,80.49
2018-05-23T21:59:28.508Z,81.01
2018-05-23T22:01:56.751Z,81.19
2018-05-23T22:04:25.000Z,81.20
2018-05-23T22:06:53.244Z,81.20
2018-05-23T22:09:21.499Z,81.35
2018-05-23T22:11:49.748Z,81.33
2018-05-23T22:14:18.000Z,81.21
2018-05-23T22:16:46.243Z,81.28
2018-05-23T22:19:14.498Z,81.58
2018-05-23T22:21:42.748Z,81.83
2018-05-23T22:24:11.019Z,82.11
2018-05-23T22:26:40.771Z,82.55
2018-05-23T22:29:09.029Z,82.88
2018-05-23T22:31:38.044Z,83.03
2018-05-23T22:34:06.300Z,82.89
2018-05-23T22:36:35.307Z,82.91
2018-05-23T22:39:03.571Z,82.93
2018-05-23T22:41:32.675Z,83.09
2018-05-23T22:44:00.930Z,83.31
2018-05-23T22:46:29.943Z,83.74
2018-05-23T22:48:58.203Z,84.50
2018-05-23T22:51:27.207Z,85.09
2018-05-23T22:53:55.474Z,85.84
2018-05-23T22:56:24.479Z,85.87
2018-05-23T22:58:52.738Z,85.66
2018-05-23T23:01:21.756Z,85.58
2018-05-23T23:03:49.999Z,85.48
2018-05-23T23:06:19.015Z,85.67
2018-05-23T23:08:47.269Z,85.45
2018-05-23T23:11:16.283Z,85.17
2018-05-23T23:13:44.522Z,85.44
2018-05-23T23:16:12.775Z,85.44
2018-05-23T23:18:41.025Z,85.49
2018-05-23T23:21:09.273Z,85.39
2018-05-23T23:23:38.283Z,85.50
2018-05-23T23:26:06.533Z,85.52
2018-05-23T23:28:35.539Z,85.75
2018-05-23T23:31:03.791Z,85.83
2018-05-23T23:33:32.040Z,85.67
2018-05-23T23:36:00.291Z,85.73
2018-05-23T23:38:28.536Z,85.87
2018-05-23T23:40:57.556Z,85.88
2018-05-23T23:43:25.799Z,86.23
2018-05-23T23:45:54.820Z,86.39
2018-05-23T23:48:23.074Z,86.68
2018-05-23T23:50:52.097Z,86.62
2018-05-23T23:53:20.347Z,86.53
2018-05-23T23:55:49.364Z,86.48
2018-05-23T23:58:17.612Z,86.56
